Time;durP1;ratioP1;P1;durP2;ratioP2;P2;SDS_P1;SDS_P2;PMS_P1;PMS_P2;Temp;Humidity;BMP_temperature;BMP_pressure;BME280_temperature;BME280_humidity;BME280_pressure;Samples;Min_cycle;Max_cycle;Signal;HPM_P1;HPM_P2
2022/05/09 00:09:27;;;;;;;13.00;7.30;;;16.60;84.90;;;;;;20993970;28;20699;-63
2022/05/09 00:19:29;;;;;;;9.70;7.33;;;16.50;85.40;;;;;;20993408;28;20247;-61
2022/05/09 00:29:31;;;;;;;11.43;7.57;;;16.40;85.60;;;;;;20993024;28;20756;-62
2022/05/09 00:39:33;;;;;;;12.93;7.83;;;16.30;85.90;;;;;;20991376;28;20233;-62
2022/05/09 00:49:45;;;;;;;14.03;7.53;;;16.20;86.30;;;;;;21005244;28;20211;-61
2022/05/09 00:59:50;;;;;;;12.30;7.57;;;16.20;86.60;;;;;;21005714;28;20614;-62
2022/05/09 01:09:52;;;;;;;11.13;6.80;;;16.10;86.90;;;;;;21005874;28;20569;-61
2022/05/09 01:19:58;;;;;;;11.03;7.07;;;15.90;86.90;;;;;;21005248;28;20296;-62
2022/05/09 01:30:09;;;;;;;14.07;7.20;;;15.90;87.70;;;;;;21004566;28;20243;-61
2022/05/09 01:40:11;;;;;;;14.67;8.40;;;15.80;87.60;;;;;;21029867;28;20252;-63
2022/05/09 01:50:13;;;;;;;18.60;8.93;;;15.50;88.60;;;;;;21010579;28;20207;-64
2022/05/09 02:00:15;;;;;;;11.30;8.37;;;15.40;90.00;;;;;;21019303;28;20321;-62
2022/05/09 02:10:17;;;;;;;11.87;7.47;;;15.30;90.60;;;;;;21010300;28;20227;-62
2022/05/09 02:20:19;;;;;;;10.40;7.90;;;15.20;91.00;;;;;;21000599;28;20763;-62
2022/05/09 02:30:21;;;;;;;10.60;7.83;;;15.00;91.30;;;;;;20999605;28;20253;-61
2022/05/09 02:40:26;;;;;;;12.00;7.57;;;14.90;91.50;;;;;;20998681;28;20242;-62
2022/05/09 02:50:28;;;;;;;13.70;7.93;;;14.80;91.70;;;;;;20997863;28;20662;-62
2022/05/09 03:00:30;;;;;;;15.00;8.00;;;14.70;92.00;;;;;;20997357;28;20246;-62
2022/05/09 03:10:32;;;;;;;10.67;7.20;;;14.60;92.20;;;;;;20995702;28;20207;-62
2022/05/09 03:20:34;;;;;;;10.67;6.93;;;14.50;92.40;;;;;;20995911;28;20701;-63
2022/05/09 03:30:38;;;;;;;12.40;7.10;;;14.40;92.30;;;;;;20994855;28;20645;-61
2022/05/09 03:40:40;;;;;;;10.50;7.03;;;14.10;92.40;;;;;;20993710;28;20260;-63
2022/05/09 03:50:41;;;;;;;7.50;6.20;;;14.00;92.40;;;;;;20994622;28;20210;-64
2022/05/09 04:00:43;;;;;;;10.13;5.97;;;13.90;92.40;;;;;;20995908;28;20241;-64
2022/05/09 04:10:46;;;;;;;7.47;6.27;;;13.70;92.50;;;;;;20992955;28;20201;-61
2022/05/09 04:20:50;;;;;;;13.13;6.97;;;13.70;92.50;;;;;;21000638;28;20249;-61
2022/05/09 04:30:52;;;;;;;12.97;7.20;;;13.60;92.40;;;;;;21008491;28;20203;-63
2022/05/09 04:40:59;;;;;;;11.77;7.07;;;13.60;92.50;;;;;;21008103;28;20231;-63
2022/05/09 04:51:01;;;;;;;10.37;6.50;;;13.60;92.50;;;;;;21008105;28;20623;-62
2022/05/09 05:01:03;;;;;;;14.90;6.87;;;13.70;92.50;;;;;;21007427;28;20284;-63
2022/05/09 05:11:07;;;;;;;15.97;6.00;;;13.80;92.40;;;;;;21033831;28;20209;-64
2022/05/09 05:21:13;;;;;;;14.83;6.37;;;13.90;92.40;;;;;;21071826;28;20247;-63
2022/05/09 05:31:18;;;;;;;12.20;5.47;;;14.10;92.20;;;;;;21004010;28;20208;-65
2022/05/09 05:41:22;;;;;;;14.60;7.30;;;14.20;91.50;;;;;;21046457;28;20278;-63
2022/05/09 05:51:24;;;;;;;21.27;6.73;;;14.50;91.00;;;;;;21086195;28;20209;-63
2022/05/09 06:01:26;;;;;;;19.00;7.27;;;14.70;90.60;;;;;;21084529;28;20234;-64
2022/05/09 06:11:28;;;;;;;13.57;5.30;;;14.90;89.80;;;;;;21086369;28;20202;-63
2022/05/09 06:21:33;;;;;;;14.03;4.90;;;15.20;88.10;;;;;;21084109;28;20249;-63
2022/05/09 06:31:36;;;;;;;10.40;4.63;;;15.60;86.60;;;;;;21100901;28;20217;-65
2022/05/09 06:41:38;;;;;;;6.93;3.37;;;15.90;85.20;;;;;;21083465;28;20242;-61
2022/05/09 06:51:43;;;;;;;6.57;3.17;;;16.30;83.70;;;;;;21082720;28;20205;-67
2022/05/09 07:01:45;;;;;;;5.23;2.53;;;16.60;81.90;;;;;;21079046;28;20245;-64
2022/05/09 07:11:46;;;;;;;8.83;2.80;;;17.00;80.40;;;;;;21079275;28;20207;-67
2022/05/09 07:21:48;;;;;;;7.67;2.87;;;17.30;79.10;;;;;;21081533;28;20305;-61
2022/05/09 07:31:50;;;;;;;7.40;3.30;;;17.50;78.00;;;;;;21079120;28;20225;-66
2022/05/09 07:41:52;;;;;;;7.43;3.87;;;17.70;77.20;;;;;;21077726;28;20318;-62
2022/05/09 07:51:54;;;;;;;7.97;3.23;;;17.90;76.50;;;;;;21079070;28;20257;-66
2022/05/09 08:01:56;;;;;;;10.77;3.60;;;18.20;76.20;;;;;;21094323;28;20236;-62
2022/05/09 08:11:58;;;;;;;4.40;3.43;;;18.40;75.70;;;;;;21093528;28;20216;-65
2022/05/09 08:22:01;;;;;;;9.97;3.77;;;18.70;75.60;;;;;;21093283;28;20251;-62
2022/05/09 08:32:03;;;;;;;8.70;4.17;;;19.00;75.50;;;;;;21092462;28;20205;-68
2022/05/09 08:42:08;;;;;;;8.67;3.73;;;19.20;74.90;;;;;;21091728;28;20211;-64
2022/05/09 08:52:39;;;;;;;5.07;3.50;;;19.50;74.70;;;;;;21091275;28;20205;-66
2022/05/09 09:02:55;;;;;;;7.80;3.80;;;19.70;74.10;;;;;;21089510;28;20220;-68
2022/05/09 09:13:23;;;;;;;5.40;3.37;;;19.90;73.30;;;;;;21090365;28;20234;-70
2022/05/09 09:23:34;;;;;;;7.00;3.70;;;20.00;72.70;;;;;;21089732;28;20234;-66
2022/05/09 09:33:42;;;;;;;6.07;3.67;;;20.20;72.00;;;;;;21088337;28;20230;-71
2022/05/09 09:43:46;;;;;;;6.63;3.90;;;20.40;71.60;;;;;;21087380;28;20552;-67
2022/05/09 09:53:51;;;;;;;9.40;3.40;;;20.70;71.40;;;;;;21085940;28;20230;-64
2022/05/09 10:04:09;;;;;;;7.63;3.40;;;20.80;70.80;;;;;;21085359;28;20202;-64
2022/05/09 10:14:12;;;;;;;18.00;10.47;;;21.00;70.20;;;;;;21085138;28;20318;-63
2022/05/09 10:34:52;;;;;;;6.77;3.50;;;21.40;68.40;;;;;;21083255;28;20246;-62
2022/05/09 10:45:06;;;;;;;3.57;3.27;;;21.50;67.10;;;;;;21083039;28;20206;-64
2022/05/09 10:55:24;;;;;;;7.17;3.37;;;21.70;66.00;;;;;;21081402;28;20576;-65
2022/05/09 11:05:41;;;;;;;5.07;3.63;;;21.90;65.70;;;;;;21082415;28;20210;-64
2022/05/09 11:16:18;;;;;;;6.33;3.33;;;22.00;64.90;;;;;;21082143;28;20635;-63
2022/05/09 11:26:50;;;;;;;5.30;3.23;;;22.20;64.60;;;;;;21078597;28;20256;-64
2022/05/09 11:37:21;;;;;;;8.23;3.60;;;22.40;63.80;;;;;;21074665;28;20238;-63
2022/05/09 11:47:51;;;;;;;5.70;3.43;;;22.60;62.20;;;;;;21076956;28;20211;-67
2022/05/09 11:57:56;;;;;;;5.70;3.50;;;22.90;60.80;;;;;;21056749;28;20234;-64
2022/05/09 12:08:08;;;;;;;4.40;3.10;;;23.20;59.60;;;;;;21076148;28;20351;-66
2022/05/09 12:18:30;;;;;;;4.57;3.40;;;23.60;58.70;;;;;;21075608;28;20592;-63
2022/05/09 12:28:40;;;;;;;6.83;3.20;;;23.90;57.20;;;;;;21075881;28;20281;-62
2022/05/09 12:38:44;;;;;;;4.83;3.40;;;23.80;56.10;;;;;;21081290;28;20260;-67
2022/05/09 12:48:46;;;;;;;4.27;3.00;;;23.90;55.30;;;;;;21094571;28;20263;-63
2022/05/09 12:59:07;;;;;;;4.00;3.03;;;24.10;55.00;;;;;;21086846;28;20246;-68
2022/05/09 13:09:34;;;;;;;4.60;3.30;;;24.30;54.50;;;;;;21087266;28;20202;-69
2022/05/09 13:19:36;;;;;;;4.20;3.20;;;24.60;53.80;;;;;;21087400;28;20249;-71
2022/05/09 13:29:39;;;;;;;4.17;3.07;;;24.70;52.90;;;;;;21086999;28;20260;-70
2022/05/09 13:39:43;;;;;;;4.37;3.33;;;24.50;52.60;;;;;;21085767;28;20234;-68
2022/05/09 13:49:48;;;;;;;4.00;2.90;;;24.60;52.30;;;;;;21083129;28;20666;-64
2022/05/09 14:00:03;;;;;;;6.17;3.03;;;24.50;51.70;;;;;;21084165;28;20287;-61
2022/05/09 14:10:24;;;;;;;8.30;4.70;;;24.40;51.00;;;;;;21083924;28;20316;-65
2022/05/09 14:20:31;;;;;;;11.53;7.10;;;25.00;50.30;;;;;;21083469;28;20242;-70
2022/05/09 14:30:35;;;;;;;5.00;4.20;;;25.80;49.10;;;;;;21082519;28;20244;-71
2022/05/09 14:40:43;;;;;;;4.17;2.90;;;26.20;48.20;;;;;;21079115;28;20291;-71
2022/05/09 14:50:55;;;;;;;17.60;10.38;;;27.40;46.60;;;;;;21080086;28;20210;-70
2022/05/09 15:01:02;;;;;;;5.28;2.90;;;29.20;44.40;;;;;;21080577;28;20234;-71
2022/05/09 15:11:13;;;;;;;4.28;3.00;;;27.20;44.90;;;;;;21079537;28;20236;-66
2022/05/09 15:21:16;;;;;;;5.00;3.33;;;26.70;44.90;;;;;;21078826;28;20338;-71
2022/05/09 15:31:19;;;;;;;3.83;2.97;;;25.90;45.50;;;;;;21077576;28;20234;-72
2022/05/09 15:41:25;;;;;;;5.60;2.90;;;25.80;45.10;;;;;;21077723;28;20532;-66
2022/05/09 15:51:27;;;;;;;4.80;2.90;;;26.00;45.00;;;;;;21077557;28;20252;-63
2022/05/09 16:01:35;;;;;;;3.67;3.00;;;26.00;45.30;;;;;;21076508;28;20702;-69
2022/05/09 16:11:40;;;;;;;4.63;3.50;;;25.80;45.30;;;;;;21076557;28;20285;-73
2022/05/09 16:21:42;;;;;;;3.47;3.07;;;25.60;45.50;;;;;;21088286;28;20235;-70
2022/05/09 16:31:44;;;;;;;5.27;3.30;;;26.50;44.70;;;;;;21047141;28;20207;-71
2022/05/09 16:41:45;;;;;;;3.77;3.10;;;27.30;43.90;;;;;;21060122;28;20273;-70
2022/05/09 16:51:48;;;;;;;7.20;5.87;;;26.30;43.90;;;;;;21006450;28;20276;-66
2022/05/09 17:02:14;;;;;;;5.63;2.87;;;26.10;43.90;;;;;;21065331;28;20227;-67
2022/05/09 17:12:26;;;;;;;2.80;2.40;;;26.10;44.00;;;;;;21089568;28;20564;-66
2022/05/09 17:22:28;;;;;;;6.67;3.03;;;25.80;44.80;;;;;;21088533;28;20238;-65
2022/05/09 17:32:31;;;;;;;5.53;2.90;;;25.00;45.40;;;;;;21059343;28;20207;-72
2022/05/09 17:42:32;;;;;;;4.50;3.27;;;24.50;45.80;;;;;;21002903;28;20237;-71
2022/05/09 17:52:34;;;;;;;6.07;3.13;;;24.10;46.30;;;;;;21002077;28;20219;-70
2022/05/09 18:02:37;;;;;;;7.93;3.13;;;23.80;47.10;;;;;;20998653;28;20239;-76
2022/05/09 18:12:43;;;;;;;4.77;3.00;;;23.50;47.90;;;;;;21000641;28;20211;-70
2022/05/09 18:22:49;;;;;;;6.00;3.20;;;23.30;48.60;;;;;;21028057;28;20288;-65
2022/05/09 18:32:55;;;;;;;5.57;3.43;;;23.00;49.50;;;;;;20996972;28;20223;-69
2022/05/09 18:43:16;;;;;;;5.27;3.37;;;22.70;50.60;;;;;;21008863;28;20203;-69
2022/05/09 18:53:18;;;;;;;6.67;3.30;;;22.40;52.00;;;;;;21045322;28;20207;-67
2022/05/09 19:03:20;;;;;;;10.60;4.10;;;22.10;52.90;;;;;;21032674;28;20211;-69
2022/05/09 19:13:25;;;;;;;7.07;3.70;;;21.70;54.20;;;;;;20999587;28;20234;-68
2022/05/09 19:23:30;;;;;;;8.50;4.93;;;21.40;56.00;;;;;;21069788;28;20233;-69
2022/05/09 19:33:31;;;;;;;9.67;4.47;;;21.00;57.50;;;;;;21078759;28;20761;-69
2022/05/09 19:43:35;;;;;;;7.73;4.30;;;20.60;59.30;;;;;;21078519;28;20209;-67
2022/05/09 20:03:58;;;;;;;8.23;4.20;;;20.00;61.90;;;;;;20993715;28;20214;-67
2022/05/09 20:14:00;;;;;;;6.47;4.13;;;19.70;63.40;;;;;;20993560;28;20699;-68
2022/05/09 20:24:03;;;;;;;6.70;4.83;;;19.30;65.10;;;;;;20993288;28;20203;-68
2022/05/09 20:34:05;;;;;;;8.67;5.40;;;19.00;66.10;;;;;;20992749;28;20289;-66
2022/05/09 20:44:11;;;;;;;7.17;4.70;;;18.80;67.30;;;;;;20992618;28;20208;-65
2022/05/09 20:54:15;;;;;;;8.27;4.70;;;18.50;68.70;;;;;;21036300;28;20265;-67
2022/05/09 21:04:17;;;;;;;6.60;4.87;;;18.40;70.40;;;;;;21033042;28;20205;-68
2022/05/09 21:14:19;;;;;;;5.50;4.50;;;18.30;70.80;;;;;;21004182;28;20269;-69
2022/05/09 21:24:22;;;;;;;9.60;4.80;;;18.00;72.00;;;;;;21005766;28;20215;-68
2022/05/09 21:34:24;;;;;;;7.33;5.00;;;17.70;73.00;;;;;;21010268;28;20227;-68
2022/05/09 21:44:28;;;;;;;6.87;5.10;;;17.70;74.10;;;;;;21052191;28;20209;-68
2022/05/09 21:54:36;;;;;;;8.93;4.70;;;17.40;75.20;;;;;;21035215;28;20233;-68
2022/05/09 22:04:39;;;;;;;7.17;4.97;;;17.10;76.10;;;;;;21002688;28;20209;-68
2022/05/09 22:14:40;;;;;;;9.30;5.50;;;17.00;76.80;;;;;;21001288;28;20643;-66
2022/05/09 22:24:46;;;;;;;10.60;5.40;;;16.90;78.40;;;;;;21001027;28;20203;-67
2022/05/09 22:34:49;;;;;;;8.20;5.63;;;16.80;78.40;;;;;;20999975;28;20235;-65
2022/05/09 22:44:55;;;;;;;8.30;5.90;;;16.70;78.80;;;;;;20999865;28;20211;-66
2022/05/09 22:54:57;;;;;;;7.83;5.07;;;16.40;79.80;;;;;;20998516;28;20281;-65
2022/05/09 23:04:59;;;;;;;7.60;5.37;;;16.40;80.30;;;;;;20997619;28;20655;-65
2022/05/09 23:15:02;;;;;;;8.70;5.50;;;16.10;81.10;;;;;;20997201;28;20276;-65
2022/05/09 23:25:05;;;;;;;7.33;5.40;;;16.00;82.00;;;;;;20995726;28;20203;-66
2022/05/09 23:35:08;;;;;;;7.47;5.53;;;15.90;82.80;;;;;;20996694;28;20285;-65
2022/05/09 23:45:11;;;;;;;7.23;5.63;;;15.70;83.30;;;;;;20995393;28;20720;-63
2022/05/09 23:55:13;;;;;;;8.30;5.70;;;15.70;83.80;;;;;;20994688;28;20263;-65
